sensor_id;sensor_type;location;lat;lon;timestamp;P1;durP1;ratioP1;P2;durP2;ratioP2
26578;SDS011;14227;47.674;19.320;2023-06-22T00:00:27;25.83;;;8.75;;
26578;SDS011;14227;47.674;19.320;2023-06-22T00:02:53;19.77;;;8.73;;
26578;SDS011;14227;47.674;19.320;2023-06-22T00:05:18;19.42;;;8.75;;
26578;SDS011;14227;47.674;19.320;2023-06-22T00:07:44;34.08;;;10.43;;
26578;SDS011;14227;47.674;19.320;2023-06-22T00:10:10;20.08;;;9.45;;
26578;SDS011;14227;47.674;19.320;2023-06-22T00:12:35;17.17;;;9.27;;
26578;SDS011;14227;47.674;19.320;2023-06-22T00:15:01;23.67;;;10.00;;
26578;SDS011;14227;47.674;19.320;2023-06-22T00:17:27;27.65;;;10.90;;
26578;SDS011;14227;47.674;19.320;2023-06-22T00:19:52;27.50;;;10.00;;
26578;SDS011;14227;47.674;19.320;2023-06-22T00:22:20;22.52;;;9.77;;
26578;SDS011;14227;47.674;19.320;2023-06-22T00:24:53;19.15;;;9.57;;
26578;SDS011;14227;47.674;19.320;2023-06-22T00:27:20;19.48;;;10.82;;
26578;SDS011;14227;47.674;19.320;2023-06-22T00:29:46;20.77;;;11.40;;
26578;SDS011;14227;47.674;19.320;2023-06-22T00:32:11;24.65;;;11.93;;
26578;SDS011;14227;47.674;19.320;2023-06-22T00:34:37;22.10;;;10.55;;
26578;SDS011;14227;47.674;19.320;2023-06-22T00:37:03;25.48;;;10.95;;
26578;SDS011;14227;47.674;19.320;2023-06-22T00:39:28;23.25;;;10.60;;
26578;SDS011;14227;47.674;19.320;2023-06-22T00:41:54;21.05;;;11.27;;
26578;SDS011;14227;47.674;19.320;2023-06-22T00:44:20;23.40;;;10.45;;
26578;SDS011;14227;47.674;19.320;2023-06-22T00:46:46;18.83;;;10.95;;
26578;SDS011;14227;47.674;19.320;2023-06-22T00:49:11;22.30;;;10.75;;
26578;SDS011;14227;47.674;19.320;2023-06-22T00:51:37;19.83;;;10.90;;
26578;SDS011;14227;47.674;19.320;2023-06-22T00:54:04;22.33;;;10.32;;
26578;SDS011;14227;47.674;19.320;2023-06-22T00:56:30;26.15;;;11.25;;
26578;SDS011;14227;47.674;19.320;2023-06-22T00:58:57;24.38;;;10.98;;
26578;SDS011;14227;47.674;19.320;2023-06-22T01:01:24;21.02;;;11.02;;
26578;SDS011;14227;47.674;19.320;2023-06-22T01:03:50;21.65;;;11.95;;
26578;SDS011;14227;47.674;19.320;2023-06-22T01:06:18;23.80;;;11.15;;
26578;SDS011;14227;47.674;19.320;2023-06-22T01:08:53;24.42;;;10.80;;
26578;SDS011;14227;47.674;19.320;2023-06-22T01:11:29;25.48;;;12.23;;
26578;SDS011;14227;47.674;19.320;2023-06-22T01:14:06;25.83;;;10.80;;
26578;SDS011;14227;47.674;19.320;2023-06-22T01:16:39;22.50;;;11.88;;
26578;SDS011;14227;47.674;19.320;2023-06-22T01:22:17;23.67;;;12.27;;
26578;SDS011;14227;47.674;19.320;2023-06-22T01:24:48;24.65;;;11.90;;
26578;SDS011;14227;47.674;19.320;2023-06-22T01:29:53;23.63;;;11.77;;
26578;SDS011;14227;47.674;19.320;2023-06-22T01:32:29;17.90;;;11.18;;
26578;SDS011;14227;47.674;19.320;2023-06-22T01:34:58;27.50;;;13.32;;
26578;SDS011;14227;47.674;19.320;2023-06-22T01:37:29;21.33;;;11.25;;
26578;SDS011;14227;47.674;19.320;2023-06-22T01:39:57;26.92;;;11.52;;
26578;SDS011;14227;47.674;19.320;2023-06-22T01:42:24;21.80;;;12.38;;
26578;SDS011;14227;47.674;19.320;2023-06-22T01:44:53;23.83;;;11.80;;
26578;SDS011;14227;47.674;19.320;2023-06-22T01:47:20;24.13;;;13.10;;
26578;SDS011;14227;47.674;19.320;2023-06-22T01:49:47;20.27;;;11.57;;
26578;SDS011;14227;47.674;19.320;2023-06-22T01:52:14;20.70;;;11.48;;
26578;SDS011;14227;47.674;19.320;2023-06-22T01:54:41;26.33;;;12.60;;
26578;SDS011;14227;47.674;19.320;2023-06-22T01:57:07;30.20;;;13.07;;
26578;SDS011;14227;47.674;19.320;2023-06-22T01:59:37;24.85;;;12.95;;
26578;SDS011;14227;47.674;19.320;2023-06-22T02:04:51;22.83;;;12.57;;
26578;SDS011;14227;47.674;19.320;2023-06-22T02:07:22;22.75;;;12.15;;
26578;SDS011;14227;47.674;19.320;2023-06-22T02:09:51;21.90;;;13.77;;
26578;SDS011;14227;47.674;19.320;2023-06-22T02:12:21;24.38;;;13.40;;
26578;SDS011;14227;47.674;19.320;2023-06-22T02:14:49;29.60;;;12.85;;
26578;SDS011;14227;47.674;19.320;2023-06-22T02:17:17;23.90;;;13.43;;
26578;SDS011;14227;47.674;19.320;2023-06-22T02:19:43;24.40;;;13.80;;
26578;SDS011;14227;47.674;19.320;2023-06-22T02:22:09;38.20;;;15.82;;
26578;SDS011;14227;47.674;19.320;2023-06-22T02:24:35;22.23;;;13.35;;
26578;SDS011;14227;47.674;19.320;2023-06-22T02:27:01;29.10;;;14.60;;
26578;SDS011;14227;47.674;19.320;2023-06-22T02:29:27;29.20;;;14.45;;
26578;SDS011;14227;47.674;19.320;2023-06-22T02:31:54;32.03;;;14.02;;
26578;SDS011;14227;47.674;19.320;2023-06-22T02:34:21;34.10;;;15.52;;
26578;SDS011;14227;47.674;19.320;2023-06-22T02:36:47;26.35;;;14.45;;
26578;SDS011;14227;47.674;19.320;2023-06-22T02:39:18;25.42;;;14.30;;
26578;SDS011;14227;47.674;19.320;2023-06-22T02:41:48;23.70;;;13.68;;
26578;SDS011;14227;47.674;19.320;2023-06-22T02:44:15;23.35;;;15.65;;
26578;SDS011;14227;47.674;19.320;2023-06-22T02:46:41;27.60;;;15.50;;
26578;SDS011;14227;47.674;19.320;2023-06-22T02:49:07;26.35;;;14.95;;
26578;SDS011;14227;47.674;19.320;2023-06-22T02:51:33;30.20;;;15.40;;
26578;SDS011;14227;47.674;19.320;2023-06-22T02:53:59;25.95;;;14.57;;
26578;SDS011;14227;47.674;19.320;2023-06-22T02:56:25;28.73;;;14.98;;
26578;SDS011;14227;47.674;19.320;2023-06-22T02:58:51;32.95;;;14.50;;
26578;SDS011;14227;47.674;19.320;2023-06-22T03:01:17;28.77;;;15.40;;
26578;SDS011;14227;47.674;19.320;2023-06-22T03:03:48;26.08;;;14.80;;
26578;SDS011;14227;47.674;19.320;2023-06-22T03:06:13;25.98;;;13.50;;
26578;SDS011;14227;47.674;19.320;2023-06-22T03:08:39;22.98;;;13.20;;
26578;SDS011;14227;47.674;19.320;2023-06-22T03:11:06;36.97;;;15.88;;
26578;SDS011;14227;47.674;19.320;2023-06-22T03:13:33;32.45;;;14.82;;
26578;SDS011;14227;47.674;19.320;2023-06-22T03:15:58;22.88;;;12.63;;
26578;SDS011;14227;47.674;19.320;2023-06-22T03:18:24;26.27;;;14.23;;
26578;SDS011;14227;47.674;19.320;2023-06-22T03:20:50;27.15;;;14.05;;
26578;SDS011;14227;47.674;19.320;2023-06-22T03:23:16;27.98;;;14.95;;
26578;SDS011;14227;47.674;19.320;2023-06-22T03:25:42;29.85;;;15.38;;
26578;SDS011;14227;47.674;19.320;2023-06-22T03:28:09;34.65;;;16.65;;
26578;SDS011;14227;47.674;19.320;2023-06-22T03:30:35;29.88;;;15.75;;
26578;SDS011;14227;47.674;19.320;2023-06-22T03:33:01;34.97;;;16.60;;
26578;SDS011;14227;47.674;19.320;2023-06-22T03:35:27;27.23;;;15.25;;
26578;SDS011;14227;47.674;19.320;2023-06-22T03:37:53;28.33;;;13.85;;
26578;SDS011;14227;47.674;19.320;2023-06-22T03:40:19;27.73;;;14.48;;
26578;SDS011;14227;47.674;19.320;2023-06-22T03:42:45;31.52;;;13.90;;
26578;SDS011;14227;47.674;19.320;2023-06-22T03:45:11;25.27;;;13.40;;
26578;SDS011;14227;47.674;19.320;2023-06-22T03:47:37;27.27;;;15.23;;
26578;SDS011;14227;47.674;19.320;2023-06-22T03:50:02;27.70;;;14.52;;
26578;SDS011;14227;47.674;19.320;2023-06-22T03:52:29;25.80;;;14.32;;
26578;SDS011;14227;47.674;19.320;2023-06-22T03:54:55;26.33;;;14.13;;
26578;SDS011;14227;47.674;19.320;2023-06-22T03:57:21;32.65;;;16.73;;
26578;SDS011;14227;47.674;19.320;2023-06-22T03:59:47;25.77;;;14.00;;
26578;SDS011;14227;47.674;19.320;2023-06-22T04:02:12;27.38;;;14.95;;
26578;SDS011;14227;47.674;19.320;2023-06-22T04:04:38;28.40;;;14.35;;
26578;SDS011;14227;47.674;19.320;2023-06-22T04:07:04;29.15;;;14.07;;
26578;SDS011;14227;47.674;19.320;2023-06-22T04:09:30;32.05;;;13.60;;
26578;SDS011;14227;47.674;19.320;2023-06-22T04:11:56;24.10;;;11.50;;
26578;SDS011;14227;47.674;19.320;2023-06-22T04:14:21;24.58;;;10.18;;
26578;SDS011;14227;47.674;19.320;2023-06-22T04:16:47;17.92;;;9.30;;
26578;SDS011;14227;47.674;19.320;2023-06-22T04:19:13;20.40;;;10.02;;
26578;SDS011;14227;47.674;19.320;2023-06-22T04:21:44;23.67;;;10.77;;
26578;SDS011;14227;47.674;19.320;2023-06-22T04:24:13;22.25;;;10.65;;
26578;SDS011;14227;47.674;19.320;2023-06-22T04:26:39;22.50;;;10.63;;
26578;SDS011;14227;47.674;19.320;2023-06-22T04:29:06;18.27;;;9.63;;
26578;SDS011;14227;47.674;19.320;2023-06-22T04:31:36;25.25;;;9.93;;
26578;SDS011;14227;47.674;19.320;2023-06-22T04:34:03;22.33;;;10.00;;
26578;SDS011;14227;47.674;19.320;2023-06-22T04:36:36;29.88;;;10.13;;
26578;SDS011;14227;47.674;19.320;2023-06-22T04:41:34;20.08;;;9.68;;
26578;SDS011;14227;47.674;19.320;2023-06-22T04:44:10;31.00;;;11.07;;
26578;SDS011;14227;47.674;19.320;2023-06-22T04:46:54;30.02;;;10.98;;
26578;SDS011;14227;47.674;19.320;2023-06-22T04:49:28;19.75;;;8.68;;
26578;SDS011;14227;47.674;19.320;2023-06-22T04:52:05;20.38;;;9.27;;
26578;SDS011;14227;47.674;19.320;2023-06-22T04:54:32;20.42;;;8.65;;
26578;SDS011;14227;47.674;19.320;2023-06-22T04:57:03;20.00;;;8.85;;
26578;SDS011;14227;47.674;19.320;2023-06-22T04:59:34;15.93;;;8.57;;
26578;SDS011;14227;47.674;19.320;2023-06-22T05:02:01;18.80;;;9.18;;
26578;SDS011;14227;47.674;19.320;2023-06-22T05:04:28;19.77;;;8.77;;
26578;SDS011;14227;47.674;19.320;2023-06-22T05:06:58;22.70;;;8.85;;
26578;SDS011;14227;47.674;19.320;2023-06-22T05:09:25;19.92;;;8.73;;
26578;SDS011;14227;47.674;19.320;2023-06-22T05:11:51;20.38;;;8.98;;
26578;SDS011;14227;47.674;19.320;2023-06-22T05:14:17;22.45;;;7.90;;
26578;SDS011;14227;47.674;19.320;2023-06-22T05:16:43;19.42;;;7.70;;
26578;SDS011;14227;47.674;19.320;2023-06-22T05:19:10;14.18;;;7.35;;
26578;SDS011;14227;47.674;19.320;2023-06-22T05:21:36;26.67;;;6.78;;
26578;SDS011;14227;47.674;19.320;2023-06-22T05:24:02;19.50;;;7.40;;
26578;SDS011;14227;47.674;19.320;2023-06-22T05:26:31;19.67;;;8.27;;
26578;SDS011;14227;47.674;19.320;2023-06-22T05:28:59;27.15;;;7.55;;
26578;SDS011;14227;47.674;19.320;2023-06-22T05:31:26;17.83;;;7.25;;
26578;SDS011;14227;47.674;19.320;2023-06-22T05:33:53;12.98;;;7.13;;
26578;SDS011;14227;47.674;19.320;2023-06-22T05:36:19;18.13;;;6.47;;
26578;SDS011;14227;47.674;19.320;2023-06-22T05:38:46;18.73;;;7.40;;
26578;SDS011;14227;47.674;19.320;2023-06-22T05:41:12;17.83;;;6.90;;
26578;SDS011;14227;47.674;19.320;2023-06-22T05:43:39;21.70;;;7.55;;
26578;SDS011;14227;47.674;19.320;2023-06-22T05:46:05;21.67;;;6.25;;
26578;SDS011;14227;47.674;19.320;2023-06-22T05:48:31;19.05;;;6.28;;
26578;SDS011;14227;47.674;19.320;2023-06-22T05:50:56;31.65;;;6.65;;
26578;SDS011;14227;47.674;19.320;2023-06-22T05:53:22;16.88;;;6.20;;
26578;SDS011;14227;47.674;19.320;2023-06-22T05:55:48;21.02;;;5.70;;
26578;SDS011;14227;47.674;19.320;2023-06-22T05:58:14;15.05;;;4.97;;
26578;SDS011;14227;47.674;19.320;2023-06-22T06:00:40;12.98;;;5.30;;
26578;SDS011;14227;47.674;19.320;2023-06-22T06:03:07;13.73;;;4.82;;
26578;SDS011;14227;47.674;19.320;2023-06-22T06:05:33;18.73;;;5.18;;
26578;SDS011;14227;47.674;19.320;2023-06-22T06:08:00;11.82;;;4.28;;
26578;SDS011;14227;47.674;19.320;2023-06-22T06:10:26;9.73;;;4.55;;
26578;SDS011;14227;47.674;19.320;2023-06-22T06:12:54;15.90;;;5.15;;
26578;SDS011;14227;47.674;19.320;2023-06-22T06:15:20;13.88;;;4.35;;
26578;SDS011;14227;47.674;19.320;2023-06-22T06:17:47;11.85;;;4.10;;
26578;SDS011;14227;47.674;19.320;2023-06-22T06:20:18;12.40;;;4.35;;
26578;SDS011;14227;47.674;19.320;2023-06-22T06:22:45;11.95;;;3.85;;
26578;SDS011;14227;47.674;19.320;2023-06-22T06:25:12;11.77;;;3.72;;
26578;SDS011;14227;47.674;19.320;2023-06-22T06:27:44;18.38;;;4.68;;
26578;SDS011;14227;47.674;19.320;2023-06-22T06:30:11;14.90;;;4.32;;
26578;SDS011;14227;47.674;19.320;2023-06-22T06:32:38;13.65;;;3.70;;
26578;SDS011;14227;47.674;19.320;2023-06-22T06:35:08;14.95;;;3.97;;
26578;SDS011;14227;47.674;19.320;2023-06-22T06:37:41;11.43;;;3.65;;
26578;SDS011;14227;47.674;19.320;2023-06-22T06:40:09;10.13;;;4.05;;
26578;SDS011;14227;47.674;19.320;2023-06-22T06:42:36;11.60;;;3.35;;
26578;SDS011;14227;47.674;19.320;2023-06-22T06:45:15;10.20;;;3.33;;
26578;SDS011;14227;47.674;19.320;2023-06-22T06:47:45;18.77;;;3.90;;
26578;SDS011;14227;47.674;19.320;2023-06-22T06:50:11;8.82;;;3.15;;
26578;SDS011;14227;47.674;19.320;2023-06-22T06:52:37;14.70;;;4.22;;
26578;SDS011;14227;47.674;19.320;2023-06-22T06:55:03;14.30;;;4.18;;
26578;SDS011;14227;47.674;19.320;2023-06-22T06:57:30;12.80;;;3.55;;
26578;SDS011;14227;47.674;19.320;2023-06-22T06:59:56;15.50;;;3.45;;
26578;SDS011;14227;47.674;19.320;2023-06-22T07:02:22;13.13;;;3.40;;
26578;SDS011;14227;47.674;19.320;2023-06-22T07:04:48;12.77;;;3.38;;
26578;SDS011;14227;47.674;19.320;2023-06-22T07:07:14;16.52;;;3.83;;
26578;SDS011;14227;47.674;19.320;2023-06-22T07:09:40;8.15;;;3.17;;
26578;SDS011;14227;47.674;19.320;2023-06-22T07:12:06;13.60;;;3.45;;
26578;SDS011;14227;47.674;19.320;2023-06-22T07:14:32;10.27;;;2.83;;
26578;SDS011;14227;47.674;19.320;2023-06-22T07:16:58;39.15;;;3.92;;
26578;SDS011;14227;47.674;19.320;2023-06-22T07:19:24;15.70;;;2.90;;
26578;SDS011;14227;47.674;19.320;2023-06-22T07:21:51;8.77;;;2.72;;
26578;SDS011;14227;47.674;19.320;2023-06-22T07:24:17;7.60;;;3.00;;
26578;SDS011;14227;47.674;19.320;2023-06-22T07:26:44;13.45;;;3.08;;
26578;SDS011;14227;47.674;19.320;2023-06-22T07:29:11;14.13;;;2.83;;
26578;SDS011;14227;47.674;19.320;2023-06-22T07:31:37;14.13;;;2.75;;
26578;SDS011;14227;47.674;19.320;2023-06-22T07:34:05;17.75;;;3.90;;
26578;SDS011;14227;47.674;19.320;2023-06-22T07:36:30;9.30;;;3.05;;
26578;SDS011;14227;47.674;19.320;2023-06-22T07:38:56;18.35;;;4.03;;
26578;SDS011;14227;47.674;19.320;2023-06-22T07:41:22;13.80;;;3.30;;
26578;SDS011;14227;47.674;19.320;2023-06-22T07:43:47;10.18;;;3.70;;
26578;SDS011;14227;47.674;19.320;2023-06-22T07:46:13;11.95;;;3.53;;
26578;SDS011;14227;47.674;19.320;2023-06-22T07:48:39;11.90;;;3.42;;
26578;SDS011;14227;47.674;19.320;2023-06-22T07:51:06;21.95;;;4.57;;
26578;SDS011;14227;47.674;19.320;2023-06-22T07:53:32;13.50;;;3.60;;
26578;SDS011;14227;47.674;19.320;2023-06-22T07:55:58;14.43;;;3.83;;
26578;SDS011;14227;47.674;19.320;2023-06-22T07:58:23;12.98;;;3.55;;
26578;SDS011;14227;47.674;19.320;2023-06-22T08:00:49;11.57;;;3.10;;
26578;SDS011;14227;47.674;19.320;2023-06-22T08:03:15;14.15;;;3.53;;
26578;SDS011;14227;47.674;19.320;2023-06-22T08:05:41;7.40;;;2.85;;
26578;SDS011;14227;47.674;19.320;2023-06-22T08:08:07;24.25;;;3.80;;
26578;SDS011;14227;47.674;19.320;2023-06-22T08:10:32;10.73;;;3.20;;
26578;SDS011;14227;47.674;19.320;2023-06-22T08:12:59;6.18;;;2.67;;
26578;SDS011;14227;47.674;19.320;2023-06-22T08:15:26;12.10;;;3.10;;
26578;SDS011;14227;47.674;19.320;2023-06-22T08:17:51;10.88;;;3.58;;
26578;SDS011;14227;47.674;19.320;2023-06-22T08:20:17;9.70;;;2.78;;
26578;SDS011;14227;47.674;19.320;2023-06-22T08:22:43;8.15;;;3.25;;
26578;SDS011;14227;47.674;19.320;2023-06-22T08:25:09;8.60;;;2.80;;
26578;SDS011;14227;47.674;19.320;2023-06-22T08:27:36;12.45;;;3.33;;
26578;SDS011;14227;47.674;19.320;2023-06-22T08:30:02;10.80;;;3.17;;
26578;SDS011;14227;47.674;19.320;2023-06-22T08:32:28;8.73;;;3.10;;
26578;SDS011;14227;47.674;19.320;2023-06-22T08:34:54;14.32;;;3.58;;
26578;SDS011;14227;47.674;19.320;2023-06-22T08:37:20;14.63;;;3.17;;
26578;SDS011;14227;47.674;19.320;2023-06-22T08:39:48;8.57;;;3.17;;
26578;SDS011;14227;47.674;19.320;2023-06-22T08:42:15;13.10;;;3.22;;
26578;SDS011;14227;47.674;19.320;2023-06-22T08:44:41;9.57;;;3.10;;
26578;SDS011;14227;47.674;19.320;2023-06-22T08:47:06;12.15;;;2.92;;
26578;SDS011;14227;47.674;19.320;2023-06-22T08:49:32;12.32;;;3.30;;
26578;SDS011;14227;47.674;19.320;2023-06-22T08:51:58;15.38;;;3.22;;
26578;SDS011;14227;47.674;19.320;2023-06-22T08:54:24;8.90;;;2.95;;
26578;SDS011;14227;47.674;19.320;2023-06-22T08:56:49;12.68;;;3.60;;
26578;SDS011;14227;47.674;19.320;2023-06-22T08:59:15;8.60;;;3.00;;
26578;SDS011;14227;47.674;19.320;2023-06-22T09:01:41;10.73;;;3.88;;
26578;SDS011;14227;47.674;19.320;2023-06-22T09:04:10;10.15;;;3.22;;
26578;SDS011;14227;47.674;19.320;2023-06-22T09:06:37;12.38;;;3.40;;
26578;SDS011;14227;47.674;19.320;2023-06-22T09:09:09;7.18;;;3.08;;
26578;SDS011;14227;47.674;19.320;2023-06-22T09:11:35;9.15;;;3.30;;
26578;SDS011;14227;47.674;19.320;2023-06-22T09:14:01;12.07;;;3.78;;
26578;SDS011;14227;47.674;19.320;2023-06-22T09:16:26;13.27;;;3.90;;
26578;SDS011;14227;47.674;19.320;2023-06-22T09:18:52;11.10;;;3.70;;
26578;SDS011;14227;47.674;19.320;2023-06-22T09:21:18;14.23;;;3.30;;
26578;SDS011;14227;47.674;19.320;2023-06-22T09:23:43;12.80;;;3.35;;
26578;SDS011;14227;47.674;19.320;2023-06-22T09:26:11;16.90;;;4.15;;
26578;SDS011;14227;47.674;19.320;2023-06-22T09:28:38;11.88;;;3.55;;
26578;SDS011;14227;47.674;19.320;2023-06-22T09:31:03;7.95;;;3.40;;
26578;SDS011;14227;47.674;19.320;2023-06-22T09:33:29;13.43;;;3.95;;
26578;SDS011;14227;47.674;19.320;2023-06-22T09:35:54;12.77;;;3.58;;
26578;SDS011;14227;47.674;19.320;2023-06-22T09:38:21;13.07;;;3.80;;
26578;SDS011;14227;47.674;19.320;2023-06-22T09:40:47;10.02;;;3.80;;
26578;SDS011;14227;47.674;19.320;2023-06-22T09:43:12;14.63;;;3.92;;
26578;SDS011;14227;47.674;19.320;2023-06-22T09:45:38;10.30;;;3.80;;
26578;SDS011;14227;47.674;19.320;2023-06-22T09:48:04;13.65;;;3.97;;
26578;SDS011;14227;47.674;19.320;2023-06-22T09:50:30;10.80;;;3.83;;
26578;SDS011;14227;47.674;19.320;2023-06-22T09:52:56;8.95;;;3.50;;
26578;SDS011;14227;47.674;19.320;2023-06-22T09:55:22;12.25;;;4.18;;
26578;SDS011;14227;47.674;19.320;2023-06-22T09:57:47;12.52;;;4.10;;
26578;SDS011;14227;47.674;19.320;2023-06-22T10:00:14;11.70;;;3.90;;
26578;SDS011;14227;47.674;19.320;2023-06-22T10:02:41;12.18;;;4.35;;
26578;SDS011;14227;47.674;19.320;2023-06-22T10:05:08;13.48;;;3.75;;
26578;SDS011;14227;47.674;19.320;2023-06-22T10:07:33;14.73;;;4.25;;
26578;SDS011;14227;47.674;19.320;2023-06-22T10:09:59;14.35;;;4.03;;
26578;SDS011;14227;47.674;19.320;2023-06-22T10:12:28;11.75;;;3.85;;
26578;SDS011;14227;47.674;19.320;2023-06-22T10:14:53;15.95;;;3.60;;
26578;SDS011;14227;47.674;19.320;2023-06-22T10:17:19;11.30;;;3.50;;
26578;SDS011;14227;47.674;19.320;2023-06-22T10:19:45;12.95;;;3.90;;
26578;SDS011;14227;47.674;19.320;2023-06-22T10:22:10;11.52;;;3.88;;
26578;SDS011;14227;47.674;19.320;2023-06-22T10:24:36;11.35;;;4.15;;
26578;SDS011;14227;47.674;19.320;2023-06-22T10:27:03;10.02;;;3.50;;
26578;SDS011;14227;47.674;19.320;2023-06-22T10:29:29;12.80;;;4.07;;
26578;SDS011;14227;47.674;19.320;2023-06-22T10:31:55;11.13;;;4.15;;
26578;SDS011;14227;47.674;19.320;2023-06-22T10:34:20;9.98;;;3.63;;
26578;SDS011;14227;47.674;19.320;2023-06-22T10:36:46;8.77;;;3.75;;
26578;SDS011;14227;47.674;19.320;2023-06-22T10:39:13;12.13;;;4.45;;
26578;SDS011;14227;47.674;19.320;2023-06-22T10:41:40;12.95;;;4.05;;
26578;SDS011;14227;47.674;19.320;2023-06-22T10:44:06;15.93;;;3.85;;
26578;SDS011;14227;47.674;19.320;2023-06-22T10:46:31;12.57;;;3.90;;
26578;SDS011;14227;47.674;19.320;2023-06-22T10:48:57;16.17;;;3.95;;
26578;SDS011;14227;47.674;19.320;2023-06-22T10:51:24;11.85;;;4.43;;
26578;SDS011;14227;47.674;19.320;2023-06-22T10:53:50;11.25;;;3.88;;
26578;SDS011;14227;47.674;19.320;2023-06-22T10:56:16;9.77;;;3.85;;
26578;SDS011;14227;47.674;19.320;2023-06-22T10:58:44;13.40;;;3.53;;
26578;SDS011;14227;47.674;19.320;2023-06-22T11:01:10;9.70;;;3.78;;
26578;SDS011;14227;47.674;19.320;2023-06-22T11:03:35;13.80;;;4.10;;
26578;SDS011;14227;47.674;19.320;2023-06-22T11:06:01;10.93;;;3.65;;
26578;SDS011;14227;47.674;19.320;2023-06-22T11:08:27;11.77;;;3.97;;
26578;SDS011;14227;47.674;19.320;2023-06-22T11:10:52;14.23;;;3.75;;
26578;SDS011;14227;47.674;19.320;2023-06-22T11:13:18;8.30;;;3.83;;
26578;SDS011;14227;47.674;19.320;2023-06-22T11:15:44;13.07;;;4.03;;
26578;SDS011;14227;47.674;19.320;2023-06-22T11:18:09;9.40;;;3.90;;
26578;SDS011;14227;47.674;19.320;2023-06-22T11:20:35;10.30;;;3.78;;
26578;SDS011;14227;47.674;19.320;2023-06-22T11:23:06;14.07;;;4.03;;
26578;SDS011;14227;47.674;19.320;2023-06-22T11:25:32;16.73;;;4.63;;
26578;SDS011;14227;47.674;19.320;2023-06-22T11:28:03;17.23;;;3.85;;
26578;SDS011;14227;47.674;19.320;2023-06-22T11:30:29;13.05;;;3.58;;
26578;SDS011;14227;47.674;19.320;2023-06-22T11:32:58;8.63;;;3.63;;
26578;SDS011;14227;47.674;19.320;2023-06-22T11:35:25;11.05;;;3.60;;
26578;SDS011;14227;47.674;19.320;2023-06-22T11:37:50;13.95;;;3.92;;
26578;SDS011;14227;47.674;19.320;2023-06-22T11:40:16;11.25;;;3.80;;
26578;SDS011;14227;47.674;19.320;2023-06-22T11:42:42;11.10;;;4.07;;
26578;SDS011;14227;47.674;19.320;2023-06-22T11:45:08;7.18;;;3.50;;
26578;SDS011;14227;47.674;19.320;2023-06-22T11:47:34;9.60;;;3.90;;
26578;SDS011;14227;47.674;19.320;2023-06-22T11:50:01;14.18;;;3.65;;
26578;SDS011;14227;47.674;19.320;2023-06-22T11:52:27;18.75;;;3.75;;
26578;SDS011;14227;47.674;19.320;2023-06-22T11:54:53;10.23;;;3.50;;
26578;SDS011;14227;47.674;19.320;2023-06-22T11:57:18;16.08;;;4.15;;
26578;SDS011;14227;47.674;19.320;2023-06-22T11:59:44;13.52;;;4.40;;
26578;SDS011;14227;47.674;19.320;2023-06-22T12:02:10;13.02;;;4.93;;
26578;SDS011;14227;47.674;19.320;2023-06-22T12:04:35;9.40;;;3.78;;
26578;SDS011;14227;47.674;19.320;2023-06-22T12:07:01;8.15;;;3.58;;
26578;SDS011;14227;47.674;19.320;2023-06-22T12:09:27;9.40;;;3.60;;
26578;SDS011;14227;47.674;19.320;2023-06-22T12:11:53;11.30;;;4.10;;
26578;SDS011;14227;47.674;19.320;2023-06-22T12:14:18;12.23;;;3.53;;
26578;SDS011;14227;47.674;19.320;2023-06-22T12:16:44;9.30;;;3.58;;
26578;SDS011;14227;47.674;19.320;2023-06-22T12:19:10;6.60;;;3.45;;
26578;SDS011;14227;47.674;19.320;2023-06-22T12:21:37;11.60;;;3.67;;
26578;SDS011;14227;47.674;19.320;2023-06-22T12:24:03;9.38;;;3.50;;
26578;SDS011;14227;47.674;19.320;2023-06-22T12:26:28;10.38;;;3.72;;
26578;SDS011;14227;47.674;19.320;2023-06-22T12:28:54;12.15;;;3.60;;
26578;SDS011;14227;47.674;19.320;2023-06-22T12:31:20;11.07;;;3.88;;
26578;SDS011;14227;47.674;19.320;2023-06-22T12:33:46;14.05;;;4.10;;
26578;SDS011;14227;47.674;19.320;2023-06-22T12:36:19;13.63;;;3.92;;
26578;SDS011;14227;47.674;19.320;2023-06-22T12:38:44;9.02;;;3.63;;
26578;SDS011;14227;47.674;19.320;2023-06-22T12:41:10;9.60;;;3.33;;
26578;SDS011;14227;47.674;19.320;2023-06-22T12:43:36;13.98;;;3.75;;
26578;SDS011;14227;47.674;19.320;2023-06-22T12:46:01;10.23;;;3.85;;
26578;SDS011;14227;47.674;19.320;2023-06-22T12:48:27;13.13;;;4.15;;
26578;SDS011;14227;47.674;19.320;2023-06-22T12:50:53;9.88;;;3.60;;
26578;SDS011;14227;47.674;19.320;2023-06-22T12:53:19;13.05;;;3.70;;
26578;SDS011;14227;47.674;19.320;2023-06-22T12:55:44;10.15;;;3.70;;
26578;SDS011;14227;47.674;19.320;2023-06-22T12:58:13;9.18;;;3.72;;
26578;SDS011;14227;47.674;19.320;2023-06-22T13:00:38;11.30;;;4.47;;
26578;SDS011;14227;47.674;19.320;2023-06-22T13:03:04;12.02;;;4.38;;
26578;SDS011;14227;47.674;19.320;2023-06-22T13:05:30;10.45;;;4.35;;
26578;SDS011;14227;47.674;19.320;2023-06-22T13:07:55;8.52;;;3.45;;
26578;SDS011;14227;47.674;19.320;2023-06-22T13:10:21;11.98;;;3.80;;
26578;SDS011;14227;47.674;19.320;2023-06-22T13:12:47;10.45;;;3.42;;
26578;SDS011;14227;47.674;19.320;2023-06-22T13:15:12;10.00;;;4.00;;
26578;SDS011;14227;47.674;19.320;2023-06-22T13:17:38;9.80;;;3.67;;
26578;SDS011;14227;47.674;19.320;2023-06-22T13:20:04;12.98;;;4.15;;
26578;SDS011;14227;47.674;19.320;2023-06-22T13:22:31;8.68;;;3.63;;
26578;SDS011;14227;47.674;19.320;2023-06-22T13:24:58;10.52;;;3.75;;
26578;SDS011;14227;47.674;19.320;2023-06-22T13:27:24;11.52;;;3.70;;
26578;SDS011;14227;47.674;19.320;2023-06-22T13:29:50;7.40;;;3.50;;
26578;SDS011;14227;47.674;19.320;2023-06-22T13:32:16;13.25;;;4.28;;
26578;SDS011;14227;47.674;19.320;2023-06-22T13:34:42;9.95;;;3.88;;
26578;SDS011;14227;47.674;19.320;2023-06-22T13:37:08;14.82;;;3.60;;
26578;SDS011;14227;47.674;19.320;2023-06-22T13:39:34;11.85;;;3.42;;
26578;SDS011;14227;47.674;19.320;2023-06-22T13:42:00;12.02;;;3.75;;
26578;SDS011;14227;47.674;19.320;2023-06-22T13:44:25;11.00;;;4.13;;
26578;SDS011;14227;47.674;19.320;2023-06-22T13:46:54;8.70;;;3.65;;
26578;SDS011;14227;47.674;19.320;2023-06-22T13:49:20;11.00;;;4.05;;
26578;SDS011;14227;47.674;19.320;2023-06-22T13:51:46;12.80;;;4.10;;
26578;SDS011;14227;47.674;19.320;2023-06-22T13:54:13;11.45;;;4.00;;
26578;SDS011;14227;47.674;19.320;2023-06-22T13:56:39;18.27;;;4.55;;
26578;SDS011;14227;47.674;19.320;2023-06-22T13:59:05;13.48;;;3.90;;
26578;SDS011;14227;47.674;19.320;2023-06-22T14:01:34;11.88;;;3.97;;
26578;SDS011;14227;47.674;19.320;2023-06-22T14:04:00;12.02;;;4.00;;
26578;SDS011;14227;47.674;19.320;2023-06-22T14:06:27;52.22;;;6.03;;
26578;SDS011;14227;47.674;19.320;2023-06-22T14:08:53;11.55;;;4.05;;
26578;SDS011;14227;47.674;19.320;2023-06-22T14:11:18;7.75;;;4.22;;
26578;SDS011;14227;47.674;19.320;2023-06-22T14:13:44;16.65;;;4.45;;
26578;SDS011;14227;47.674;19.320;2023-06-22T14:16:10;9.43;;;4.10;;
26578;SDS011;14227;47.674;19.320;2023-06-22T14:18:36;11.10;;;4.10;;
26578;SDS011;14227;47.674;19.320;2023-06-22T14:21:02;15.35;;;4.97;;
26578;SDS011;14227;47.674;19.320;2023-06-22T14:23:28;13.30;;;4.22;;
26578;SDS011;14227;47.674;19.320;2023-06-22T14:25:53;10.35;;;3.80;;